TimeCDT,TemperatureF,Dew PointF,Humidity,Sea Level PressureIn,VisibilityMPH,Wind Direction,Wind SpeedMPH,Gust SpeedMPH,PrecipitationIn,Events,Conditions,WindDirDegrees,DateUTC
12:13 AM,57.2,51.8,82,29.79,5.0,Calm,Calm,-,N/A,,Haze,0,2013-08-06 05:13:00
12:34 AM,57.2,51.8,82,29.79,7.0,Calm,Calm,-,N/A,,Overcast,0,2013-08-06 05:34:00
12:53 AM,57.2,51.8,82,29.78,7.0,Calm,Calm,-,N/A,,Overcast,0,2013-08-06 05:53:00
1:13 AM,55.4,51.8,88,29.78,2.0,Calm,Calm,-,N/A,,Haze,0,2013-08-06 06:13:00
1:34 AM,55.4,50.0,82,29.78,0.8,Calm,Calm,-,N/A,,Haze,0,2013-08-06 06:34:00
1:53 AM,53.6,50.0,88,29.77,1.0,Calm,Calm,-,N/A,,Overcast,0,2013-08-06 06:53:00
2:13 AM,53.6,48.2,82,29.77,0.2,Calm,Calm,-,N/A,,Haze,0,2013-08-06 07:13:00
2:33 AM,51.8,46.4,82,29.77,1.0,Calm,Calm,-,N/A,,Haze,0,2013-08-06 07:33:00
2:53 AM,53.6,48.2,82,29.75,0.2,Calm,Calm,-,N/A,,Haze,0,2013-08-06 07:53:00
3:13 AM,53.6,48.2,82,29.75,0.8,Calm,Calm,-,N/A,,Haze,0,2013-08-06 08:13:00
3:33 AM,53.6,48.2,82,29.74,0.2,Calm,Calm,-,N/A,,Haze,0,2013-08-06 08:33:00
3:53 AM,53.6,48.2,82,29.75,0.2,West,5.8,-,N/A,,Haze,260,2013-08-06 08:53:00
4:13 AM,53.6,48.2,82,29.76,4.0,Calm,Calm,-,N/A,,Mostly Cloudy,0,2013-08-06 09:13:00
4:33 AM,53.6,48.2,82,29.76,4.0,Calm,Calm,-,N/A,,Haze,0,2013-08-06 09:33:00
4:53 AM,53.6,48.2,82,29.75,2.5,Calm,Calm,-,N/A,,Haze,0,2013-08-06 09:53:00
5:13 AM,55.4,50.0,82,29.75,7.0,WNW,4.6,-,N/A,,Scattered Clouds,300,2013-08-06 10:13:00
5:33 AM,55.4,51.8,88,29.74,7.0,NW,3.5,-,N/A,,Scattered Clouds,310,2013-08-06 10:33:00
5:53 AM,55.4,51.8,88,29.74,7.0,Calm,Calm,-,N/A,,Clear,0,2013-08-06 10:53:00
6:13 AM,55.4,51.8,88,29.76,7.0,Calm,Calm,-,N/A,,Clear,0,2013-08-06 11:13:00
6:33 AM,55.4,51.8,88,29.77,10.0,Calm,Calm,-,N/A,,Clear,0,2013-08-06 11:33:00
6:53 AM,55.4,51.8,88,29.77,10.0,Calm,Calm,-,N/A,,Clear,0,2013-08-06 11:53:00
7:13 AM,57.2,51.8,82,29.76,10.0,Calm,Calm,-,N/A,,Clear,0,2013-08-06 12:13:00
7:33 AM,57.2,53.6,88,29.77,10.0,Calm,Calm,-,N/A,,Clear,0,2013-08-06 12:33:00
7:53 AM,60.8,55.4,82,29.77,10.0,Calm,Calm,-,N/A,,Clear,0,2013-08-06 12:53:00
8:13 AM,60.8,55.4,82,29.77,10.0,Calm,Calm,-,N/A,,Clear,0,2013-08-06 13:13:00
8:33 AM,62.6,57.2,82,29.78,10.0,West,3.5,-,N/A,,Clear,280,2013-08-06 13:33:00
8:53 AM,64.4,57.2,77,29.77,10.0,Calm,Calm,-,N/A,,Clear,0,2013-08-06 13:53:00
9:14 AM,64.4,57.2,77,29.76,10.0,SW,4.6,-,N/A,,Clear,230,2013-08-06 14:14:00
9:33 AM,64.4,57.2,77,29.76,10.0,Calm,Calm,-,N/A,,Scattered Clouds,0,2013-08-06 14:33:00
9:53 AM,66.2,59.0,78,29.76,10.0,Calm,Calm,-,N/A,,Scattered Clouds,0,2013-08-06 14:53:00
10:14 AM,66.2,57.2,73,29.76,10.0,SW,3.5,-,N/A,,Scattered Clouds,220,2013-08-06 15:14:00
10:33 AM,66.2,57.2,73,29.77,10.0,SW,4.6,-,N/A,,Scattered Clouds,230,2013-08-06 15:33:00
10:53 AM,68.0,57.2,68,29.77,10.0,WSW,5.8,-,N/A,,Scattered Clouds,250,2013-08-06 15:53:00
11:13 AM,66.2,57.2,73,29.77,10.0,WSW,4.6,-,N/A,,Scattered Clouds,250,2013-08-06 16:13:00
11:33 AM,66.2,57.2,73,29.77,10.0,Calm,Calm,-,N/A,,Clear,0,2013-08-06 16:33:00
11:53 AM,66.2,57.2,73,29.77,10.0,WSW,4.6,-,N/A,,Scattered Clouds,250,2013-08-06 16:53:00
12:13 PM,66.2,57.2,73,29.77,10.0,WSW,5.8,-,N/A,,Scattered Clouds,240,2013-08-06 17:13:00
12:33 PM,66.2,59.0,78,29.77,10.0,SSW,4.6,-,N/A,,Clear,200,2013-08-06 17:33:00
12:53 PM,66.2,59.0,78,29.77,10.0,SSW,5.8,-,N/A,,Scattered Clouds,200,2013-08-06 17:53:00
1:13 PM,66.2,57.2,73,29.77,10.0,SSW,3.5,-,N/A,Rain,Light Rain,200,2013-08-06 18:13:00
1:33 PM,66.2,59.0,78,29.76,10.0,Calm,Calm,-,N/A,Rain,Light Rain,0,2013-08-06 18:33:00
1:53 PM,66.2,59.0,78,29.76,10.0,Calm,Calm,-,N/A,,Light Drizzle,0,2013-08-06 18:53:00
2:13 PM,66.2,59.0,78,29.76,10.0,Calm,Calm,-,N/A,,Mostly Cloudy,0,2013-08-06 19:13:00
2:33 PM,66.2,59.0,78,29.75,10.0,Calm,Calm,-,N/A,,Overcast,0,2013-08-06 19:33:00
2:53 PM,66.2,60.8,83,29.75,10.0,Calm,Calm,-,N/A,Rain,Light Rain,0,2013-08-06 19:53:00
3:13 PM,66.2,60.8,83,29.75,10.0,Calm,Calm,-,N/A,,Mostly Cloudy,0,2013-08-06 20:13:00
3:33 PM,68.0,60.8,78,29.75,10.0,Calm,Calm,-,N/A,,Overcast,0,2013-08-06 20:33:00
3:53 PM,69.8,60.8,73,29.74,10.0,WSW,5.8,-,N/A,,Mostly Cloudy,240,2013-08-06 20:53:00
4:13 PM,69.8,59.0,68,29.74,10.0,SW,5.8,-,N/A,,Mostly Cloudy,220,2013-08-06 21:13:00
4:33 PM,71.6,59.0,64,29.73,10.0,West,4.6,-,N/A,,Mostly Cloudy,270,2013-08-06 21:33:00
4:53 PM,69.8,59.0,68,29.74,10.0,South,3.5,-,N/A,,Overcast,190,2013-08-06 21:53:00
5:13 PM,69.8,59.0,68,29.73,10.0,South,3.5,-,N/A,,Overcast,190,2013-08-06 22:13:00
5:33 PM,71.6,59.0,64,29.73,10.0,Calm,Calm,-,N/A,,Mostly Cloudy,0,2013-08-06 22:33:00
5:53 PM,71.6,59.0,64,29.73,10.0,Calm,Calm,-,N/A,,Scattered Clouds,0,2013-08-06 22:53:00
6:13 PM,69.8,59.0,68,29.73,10.0,Calm,Calm,-,N/A,,Scattered Clouds,0,2013-08-06 23:13:00
6:33 PM,69.8,59.0,68,29.73,10.0,Calm,Calm,-,N/A,,Mostly Cloudy,0,2013-08-06 23:33:00
6:53 PM,69.8,59.0,68,29.72,10.0,Calm,Calm,-,N/A,,Mostly Cloudy,0,2013-08-06 23:53:00
7:13 PM,68.0,60.8,78,29.72,10.0,East,3.5,-,N/A,,Mostly Cloudy,90,2013-08-07 00:13:00
7:33 PM,68.0,60.8,78,29.73,10.0,Calm,Calm,-,N/A,,Overcast,0,2013-08-07 00:33:00
7:53 PM,66.2,60.8,83,29.73,10.0,Calm,Calm,-,N/A,,Mostly Cloudy,0,2013-08-07 00:53:00
8:13 PM,66.2,60.8,83,29.73,10.0,Calm,Calm,-,N/A,,Overcast,0,2013-08-07 01:13:00
8:33 PM,64.4,57.2,77,29.74,10.0,Calm,Calm,-,N/A,,Overcast,0,2013-08-07 01:33:00
8:53 PM,62.6,57.2,82,29.73,10.0,Calm,Calm,-,N/A,Rain,Light Rain,0,2013-08-07 01:53:00
9:13 PM,62.6,57.2,82,29.73,10.0,North,3.5,-,N/A,,Mostly Cloudy,360,2013-08-07 02:13:00
9:33 PM,62.6,57.2,82,29.73,10.0,Calm,Calm,-,N/A,,Mostly Cloudy,0,2013-08-07 02:33:00
9:53 PM,60.8,55.4,82,29.74,10.0,Calm,Calm,-,N/A,,Mostly Cloudy,0,2013-08-07 02:53:00
10:13 PM,60.8,55.4,82,29.74,10.0,Calm,Calm,-,N/A,,Scattered Clouds,0,2013-08-07 03:13:00
10:33 PM,60.8,55.4,82,29.73,10.0,Calm,Calm,-,N/A,,Mostly Cloudy,0,2013-08-07 03:33:00
10:53 PM,62.6,55.4,77,29.73,10.0,Calm,Calm,-,N/A,,Overcast,0,2013-08-07 03:53:00
11:14 PM,62.6,55.4,77,29.73,10.0,Calm,Calm,-,N/A,Rain,Light Rain,0,2013-08-07 04:14:00
11:33 PM,60.8,55.4,82,29.73,10.0,Calm,Calm,-,0.01,,Overcast,0,2013-08-07 04:33:00
11:53 PM,60.8,55.4,82,29.74,10.0,Calm,Calm,-,0.01,,Scattered Clouds,0,2013-08-07 04:53:00